Youngsville, New Mexico
Current Conditions -  °F | °C
As of 4:35 AM on Tuesday 21 Oct 2014 (Local Time) from KLAM Reporting Station
Overcast Overcast  
Wind Chill:   Ceiling: 5500
Heat Index:   Visibility: 10mi
Dew Point:   Wind: 6mph
Humidity: 86%   Direction: 200°SSW
Pressure: 30.23"   Gusts: NA
Location:  36.19°N, 106.56°W
Report Text: KLAM 211035Z AUTO 20005KT 10SM SCT048 BKN055 OVC065 09/07 A3023 RMK AO2 T00890067
Loading
Personal Weather Stations






























Interactive Weather Map
Tropical Storm Tracking
New forecast layout! Learn more

10-Day Weather Forecast

Advertisements
Track Severe Weather on mobile